Decoded Metar for OIFM (ESFAHAN in IRAN) (IATA:N/A) | Meteo·Mobile Aviation Weather
aviador You're here:

OIFM Decoded Metar

ESFAHAN in IRAN
Report Time2019-03-23 09:00:00
UTC Time2019-03-23 09:10:56
Flight Rules vfr VFR
WindCalm
Visibility9999 m
Phenomena:N/A
Clouds:Few 040 Hf
Expected CloudBase > 9,600 ft AGL from Temp-Dew spread
CeilingNone
Temp16°C (ISA +11)
Dew Point-8°C (19% RH)
AAT13.1°C
QNH1018 hPa
Density Alt6,227 ft
Elevation5,059 ft
Report Wrong Elevation
Raw Report
METAR OIFM 230900Z 00000KT 9999 FEW040 16/M08 Q1018 A3006=

Extra information for OIFM:More info

Metar Taf Metar & Taf Last 4 Metars F.Rules Stats Wind Profile Meteogram Temp Stats Airport Information Weather charts Add Link Nearby VenuesMetar ALERT Operation Metar Decoded Social comments